Hauptseite
METAR-TAF:

METAR-TAF

Flughäfen :

Flughafen Dakar-Léopold Sédar Senghor

Dakar, Senegal

Breite: 14-44N, Länge: 017-30W, Höhe: 27 m

Beobachtung

Neuester Wetterbericht von vor 1 Stunde und 50 Minuten, um 03:00 UTC
Wind 6 kt aus Nord
Temperatur 20°C
Luftfeuchtigkeit 88%
Luftdruck 1013 hPa
Sichtweite: 8000 m

METAR: GOOY 160300Z 36006KT 8000 NSC 20/18 Q1013

Zeit: 04:50 (04:50 UTC)

Prognose

Neuester Wetterbericht von vor 5 Stunden und 20 Minuten, um 23:30 UTC
Gültige Prognose vom 16 um 00 UTC bis 17 um 06 UTC
Wind 8 kt aus Nord
Sichtweite 10 km oder mehr
keine Wolken unter 1500 m und keine Kumulonimbus oder Gewitterwolken

TAF: GOOY 152330Z 1600/1706 36008KT CAVOK

Wetterbeobachtungen und Prognosen von mehr als 4000 Flughäfen (METAR und TAF Bericht).

Die verfügbaren Stationen werden durch gelbe und rote Markierungen auf der Karte dargestellt.

Führen Sie die Maus auf sie, um den Namen der Station zu sehen.

Darauf klicken, um die Beobachtung von Wetterbeobachtungen und Prognosen zu sehen.

Um die Karte zu ändern : klicken Sie auf den grünen Tasten mit einem schwarzen Kreuz Zum Vergrößern, auf den grünen Button mit einem Gedankenstrich zu verkleinern, oder auf die grünen Pfeile für benachbarte Karten.


METAR-TAF: